Topp 250 perser for KCC Lagtempoen - Tempo

Lengde: 39.00 km

Nr Tid Km/t Plassering Fornavn Etternavn Klubb/sted Klasse Lengde År
1 00:50:25 46.41 1 Christoffer Ellingsen Sandnes Sykleklubb M 17-19 39 km 2017
2 00:50:25 46.41 1 Jone Ellingsen Sandnes Sykleklubb M 40-44 39 km 2017
3 00:50:25 46.41 1 Martin Alexander Fatnes Sandnes Sykleklubb M 20-24 39 km 2017
4 00:50:25 46.41 1 Tor Arne Gilje Sandnes Sykleklubb M 20-24 39 km 2017
5 00:50:25 46.41 1 Jon-Emil Svendsbø Sandnes Sykleklubb M 17-19 39 km 2017
6 00:50:26 46.39 1 Magne Hatteland Bryne Cykleklubb M 30-34 39 km 2016
7 00:50:26 46.39 1 Einar Lode Bryne Cykleklubb M 45-49 39 km 2016
8 00:50:26 46.39 1 Thomas Nærland Bryne Cykleklubb M 35-39 39 km 2016
9 00:50:26 46.39 1 Sveinung Orstad Bryne Cykleklubb M 25-29 39 km 2016
10 00:50:46 46.09 6 René Andersen Forus og Gausel Idrettslag - Sykkel M 45-49 39 km 2017
11 00:50:46 46.09 6 Andreas Penne Nygård Rennesøy Sykelklubb M 35-39 39 km 2017
12 00:50:50 46.03 11 Tor Olav Gregersen CK Haugaland M 35-39 39 km 2017
13 00:50:50 46.03 11 Arne Kalland-Olsen Bokn Sykkelklubb M 17-19 39 km 2017
14 00:50:50 46.03 11 Øystein Olsen CK Haugaland M 40-44 39 km 2017
15 00:50:50 46.03 11 Stein Helge Simonsen Stord Sykleklubb M 40-44 39 km 2017
16 00:50:50 46.03 11 Magne Aarsteinsen CK Haugaland M 20-24 39 km 2017
17 00:50:55 45.95 1 Geir Henning Larsen Østerhus Styrbjørn Racing Team / Bryne CK M 45-49 39 km 2013
18 00:50:55 45.95 1 Arne Rettedal Østerhus Styrbjørn Racing Team / Bogafjell Syklekl M 40-44 39 km 2013
19 00:50:55 45.95 1 Ronald Valvatne Østerhus Styrbjørn Racing Team / Fusa SK M 45-49 39 km 2013
20 00:50:55 45.95 1 Jarle Aakre Østerhus Styrbjørn Racing Team / Sandnes SK M 40-44 39 km 2013
21 00:50:58 45.91 5 Amund Dyrnes Sandnes Sykleklubb M 25-29 39 km 2016
22 00:50:58 45.91 5 Eirik Mella Sandnes Sykleklubb M 35-39 39 km 2016
23 00:51:34 45.37 1 Bjørn Petter Kårstad Nærbø SK 1 / Nærbø SK M 30-34 39 km 2014
24 00:51:34 45.37 1 Øyvind Lerbrekk Nærbø SK 1 / Nærbø SK M 30-34 39 km 2014
25 00:51:34 45.37 1 Knut Skaar Nærbø SK 1 / Nærbø SK M 30-34 39 km 2014
26 00:51:34 45.37 1 Alf Våland Nærbø SK 1 / Nærbø SK M 25-29 39 km 2014
27 00:51:36 45.34 5 Ståle Børresen Bryne CK Express lag 1 / Bryne CK M 40-44 39 km 2014
28 00:51:36 45.34 5 Frode Mehus Bryne CK Express lag 1 / Bryne CK M 45-49 39 km 2014
29 00:51:39 45.30 9 Tom Sikveland Nærbø SK 1 / Nærbø SK M 35-39 39 km 2014
30 00:51:53 45.10 5 Ørjan Frøiland Bryne CK Expresslag 1 / Bryne Cykleklubb M 35-39 39 km 2015
31 00:51:53 45.10 5 Knut Reiestad Bryne CK Expresslag 1 / Bryne Cykleklubb M 30-34 39 km 2015
32 00:51:54 45.08 9 Bjørn Helland Sandnes Sykleklubb M 50-54 39 km 2016
33 00:52:00 45 16 Per Arvid Gimre Sandnes Sykleklubb M 35-39 39 km 2017
34 00:52:00 45 6 Helge Løge Bryne express / Bryne CK M 45-49 39 km 2013
35 00:52:00 45 6 Stian Osmundsen Bryne express / Bryne CK M 35-39 39 km 2013
36 00:52:11 44.84 11 Odd Gaute Andreassen Racing Depot / Sandnes SK M 40-44 39 km 2013
37 00:52:11 44.84 11 Jan Erik Fjotland Racing Depot / Sandnes SK M 45-49 39 km 2013
38 00:52:11 44.84 11 Sondre Kartevoll Racing Depot / Sandnes SK M 35-39 39 km 2013
39 00:52:11 44.84 11 Sebastian Kartfjord Racing Depot / Sandnes SK M 25-29 39 km 2013
40 00:52:11 44.84 11 Johan Frederik Ziesler Racing Depot / Sandnes SK M 20-24 39 km 2013
41 00:53:41 43.58 10 Helmer Berre Stavanger SK TTT / Stavanger SK M 45-49 39 km 2014
42 00:53:41 43.58 10 Bengt Enersgård Stavanger SK TTT / Stavanger SK M 40-44 39 km 2014
43 00:53:41 43.58 10 Truls Grung Stavanger SK TTT / Stavanger SK M 40-44 39 km 2014
44 00:53:41 43.58 10 Jan Egil Gustafsson Stavanger SK TTT / Stavanger SK M 40-44 39 km 2014
45 00:53:41 43.58 10 Trond Hagelin Stavanger SK TTT / Stavanger SK M 45-49 39 km 2014
46 00:54:01 43.31 15 Tore Anvik Team STRIKers / Stavanger Triathlon Klubb Sykkel M 25-29 39 km 2014
47 00:54:01 43.31 15 Svein Bjarte Brendeland Team STRIKers / Stavanger Terrengsykkelklubb M 40-44 39 km 2014
48 00:54:01 43.31 15 Jesper Gejl Hansen Team STRIKers / Stavanger Triathlon Klubb Sykkel M 30-34 39 km 2014
49 00:54:01 43.31 15 Jan-Morten Ra Team STRIKers / Stavanger Triathlon Klubb Sykkel M 30-34 39 km 2014
50 00:54:03 43.29 10 Åge André Kolnes Sandnes Sykleklubb M 25-29 39 km 2016
51 00:54:10 43.2 19 Alfred Johnsen Team STRIKers / Stavanger Triathlon Klubb Sykkel M 50-54 39 km 2014
52 00:54:19 43.08 16 Asbjørn Lund Johansen Sandnes SK veteran / Sandnes SK M 30-34 39 km 2013
53 00:54:19 43.08 16 Njål Kaavik Sandnes SK veteran / Sandnes SK M 40-44 39 km 2013
54 00:54:19 43.08 16 Tore Tjetland Sandnes SK Veteran / Sandnes SK M 40-44 39 km 2013
55 00:54:35 42.87 20 Roar Børresen TTTosk 2014 / Tasta & Omegn Sykkel Klubb M 45-49 39 km 2014
56 00:54:35 42.87 20 Tore Løining TTTosk 2014 / Tasta & Omegn Sykkel Klubb M 40-44 39 km 2014
57 00:54:35 42.87 20 Harald Todnem TTTosk 2014 / Tasta & Omegn Sykkel Klubb M 30-34 39 km 2014
58 00:54:35 42.87 20 Ole Wasbø TTTosk 2014 / Tasta & Omegn Sykkel Klubb M 40-44 39 km 2014
59 00:54:36 42.85 24 Hans Inge Rege Bryne CK Express lag 2 / Bryne CK M 50-54 39 km 2014
60 00:54:36 42.85 24 Tor Helge Vatne Bryne CK Express lag 2 / Bryne CK M 50-54 39 km 2014
61 00:54:36 42.85 24 Jarle Vorland Bryne CK Express lag 2 / Bryne CK M 50-54 39 km 2014
62 00:54:38 42.83 21 Anders Farestveit Tasta & Omegn Sykkel Klubb M 30-34 39 km 2017
63 00:54:38 42.83 21 Halvor Hanasand Tasta & Omegn Sykkel Klubb M 30-34 39 km 2017
64 00:54:38 42.83 21 Svein Erik Haugland Tasta & Omegn Sykkel Klubb M 30-34 39 km 2017
65 00:54:38 42.83 21 Andreas Kverneland Tasta & Omegn Sykkel Klubb M 30-34 39 km 2017
66 00:54:42 42.77 29 Sølve Magnus Skogland Need for Speed / Sandnes Sykleklubb M 35-39 39 km 2014
67 00:54:48 42.70 21 Jo Henrik Egeland Jarstø Stavanger SK junior / Stavanger SK M 17-19 39 km 2013
68 00:54:48 42.70 21 Sverre Marselius Koi Stavanger SK junior / Stavanger SK M 17-19 39 km 2013
69 00:54:48 42.70 21 Johan Andreas Hole Mohr Stavanger SK junior / Stavanger SK M 17-19 39 km 2013
70 00:54:48 42.70 21 Johan Marandon Monsen Stavanger SK junior / Stavanger SK M 17-19 39 km 2013
71 00:54:48 42.70 21 Markus Waage Stavanger SK junior / Stavanger SK M 17-19 39 km 2013
72 00:54:54 42.62 26 Frode Høyland Nærbø 2 / Nærbø SK M 35-39 39 km 2013
73 00:54:54 42.62 26 Henning Mæland Nærbø 2 / Bryne CK M 35-39 39 km 2013
74 00:54:54 42.62 26 Andreas Skaar Nærbø 2 / Nærbø SK M 30-34 39 km 2013
75 00:55:03 42.50 31 Jan Inge Dersyd Stavanger veteran / Stavanger SK M 45-49 39 km 2013
76 00:55:03 42.50 31 Steven King Stavanger veteran / Stavanger SK M 35-39 39 km 2013
77 00:55:04 42.49 13 Arne Andersen KCC Road Vikings / Klepp Cykle Club M 40-44 39 km 2015
78 00:55:04 42.49 13 Attila Hudak KCC Road Vikings / Klepp Cykle Club M 30-34 39 km 2015
79 00:55:04 42.49 13 Robert Kvæven KCC Road Vikings / Klepp Cykle Club M 40-44 39 km 2015
80 00:55:04 42.49 13 Jon Petter Nordbø KCC Road Vikings / Klepp Cykle Club M 30-34 39 km 2015
81 00:55:04 42.49 13 Peter Vestvik KCC Road Vikings / Klepp Cykle Club M 45-49 39 km 2015
82 00:55:11 42.40 14 Njål Fjotland Bryne Cykleklubb M 40-44 39 km 2016
83 00:55:11 42.40 33 Magnar Refve Stangeland KCC Road Vikings / Klepp Cykle Club M 25-29 39 km 2014
84 00:55:11 42.40 14 Odd Kåre Tønnesen Bryne Cykleklubb M 50-54 39 km 2016
85 00:55:12 42.39 36 Stian Madland Nærbø 1 / Nærbø SK M 25-29 39 km 2013
86 00:55:12 42.39 36 Roy Mæland Nærbø 1 / Nærbø SK M 35-39 39 km 2013
87 00:55:12 42.39 36 Arild Våland Nærbø 1 / Nærbø SK M 25-29 39 km 2013
88 00:55:12 42.39 36 Atle Aanestad Nærbø 1 / Nærbø SK M 40-44 39 km 2013
89 00:55:16 42.34 37 Thomas Byberg Bogafjell Slipstreams / Bogafjell Sykleklubb M 30-34 39 km 2014
90 00:55:16 42.34 37 Tommy Ivesdal Bogafjell Slipstreams / Bogafjell Sykleklubb M 35-39 39 km 2014
91 00:55:16 42.34 37 Odd Skailand Bogafjell Slipstreams / Bogafjell Sykleklubb M 40-44 39 km 2014
92 00:55:17 42.32 41 Sigve Bore KCC Road Vikings / Klepp Cykle Club M 35-39 39 km 2014
93 00:55:20 42.28 23 Fredrik Dversnes Dalane SK M 17-19 39 km 2016
94 00:55:20 42.28 23 Hallgeir Hansen Dalane SK M 40-44 39 km 2016
95 00:55:20 42.28 23 Ernst Mortensen Dalane SK M 45-49 39 km 2016
96 00:55:20 42.28 23 Per Terje Tjåland Dalane SK M 45-49 39 km 2016
97 00:55:24 42.23 41 Stig Magne Loftheim Team STRIKers / Stavanger Triathlon Klubb Sykkel M 30-34 39 km 2013
98 00:55:24 42.23 41 Sindre Sørensen Team STRIKers / Stavanger Triathlon Klubb Sykkel M 40-44 39 km 2013
99 00:55:25 42.22 27 Rune Holmen Tasta & Omegn Sykkel Klubb M 35-39 39 km 2016
100 00:55:25 42.22 27 Tommy Johnsen Tasta & Omegn Sykkel Klubb M 45-49 39 km 2016
101 00:55:25 42.22 27 Kenneth Pedersen Tasta & Omegn Sykkel Klubb M 45-49 39 km 2016
102 00:55:25 42.22 27 Kim Østebø Tasta & Omegn Sykkel Klubb M 40-44 39 km 2016
103 00:55:26 42.21 42 Bjørn Christian Borg Bogafjell Slipstreams / Bogafjell Sykleklubb M 40-44 39 km 2014
104 00:55:32 42.13 24 Kjetil Hansen Bryne CK Expresslag 3 / Bryne Cykleklubb M 40-44 39 km 2015
105 00:55:32 42.13 24 Johnny Høyland Bryne CK Expresslag 3 / Bryne Cykleklubb M 50-54 39 km 2015
106 00:55:39 42.04 25 Ørjan Hegreberg Tasta & Omegn Sykkel Klubb M 30-34 39 km 2017
107 00:55:39 42.04 25 Børge Rovik Tasta & Omegn Sykkel Klubb M 45-49 39 km 2017
108 00:55:40 42.03 30 Joakim Frafjord Sandnes Sykleklubb M 17-19 39 km 2017
109 00:55:40 42.03 30 Ole Martin Hagland Sandnes Sykleklubb M 20-24 39 km 2017
110 00:55:40 42.03 30 Andreas Leander Harvey Sandnes Sykleklubb M 20-24 39 km 2017
111 00:55:40 42.03 30 Thomas Ingebretsen Sandnes Sykleklubb M 20-24 39 km 2017
112 00:55:40 42.03 30 Kristjan Osaland Sandnes Sykleklubb M 17-19 39 km 2017
113 00:55:43 41.99 28 Bernt Erland Gatemix / Stavanger SK M 45-49 39 km 2015
114 00:55:43 41.99 28 Arild Finnesand Gatemix / Rennesøy Sykleklubb M 40-44 39 km 2015
115 00:55:46 41.96 46 Svein Ove Andersen TTTOSK / Tasta & Omegn Sykkel Klubb M 30-34 39 km 2013
116 00:55:46 41.96 46 Kåre Torkelsen TTTOSK / Tasta & Omegn Sykkel Klubb M 30-34 39 km 2013
117 00:55:49 41.92 31 Johan Vik Stavanger TriaK Sykkel M 35-39 39 km 2016
118 00:55:56 41.83 35 Jo Frøyen Forus og Gausel Idrettslag - Sykkel M 45-49 39 km 2017
119 00:55:56 41.83 35 Bjarte Gausel Forus og Gausel Idrettslag - Sykkel M 40-44 39 km 2017
120 00:55:56 41.83 35 Ove Kalvatn Forus og Gausel Idrettslag - Sykkel M 45-49 39 km 2017
121 00:55:56 41.83 35 Erling Kristiansen Forus og Gausel Idrettslag - Sykkel M 40-44 39 km 2017
122 00:56:05 41.72 51 Gunnar Fuglestad Vigrestad-SK Lag1 / Vigrestad Sykkelklubb M 45-49 39 km 2013
123 00:56:05 41.72 51 Oddmund Gravdal Vigrestad-SK Lag1 / Vigrestad Sykkelklubb M 65-69 39 km 2013
124 00:56:05 41.72 51 Torbjørn Tobias Obrestad Vigrestad-SK Lag1 / Vigrestad Sykkelklubb M 45-49 39 km 2013
125 00:56:05 41.72 51 Berge Opstad Rugland Vigrestad-SK Lag1 / Vigrestad Sykkelklubb / Lyse B M 45-49 39 km 2013
126 00:56:06 41.71 56 Tom Espen Dalaker RSK Gul / Rennesøy Sykleklubb M 35-39 39 km 2013
127 00:56:06 41.71 56 Ivar Kloster RSK Gul / Rennesøy Sykleklubb M 50-54 39 km 2013
128 00:56:06 41.71 56 Eirik Østbø RSK Gul / Rennesøy Sykleklubb M 30-34 39 km 2013
129 00:56:11 41.64 36 Rolf Helge Selliken Bryne Cykleklubb M 50-54 39 km 2016
130 00:56:11 41.64 36 Lars Stangeland Bryne Cykleklubb M 35-39 39 km 2016
131 00:56:14 41.61 43 Arve Friestad Nærbø SK 2 / Nærbø SK M 30-34 39 km 2014
132 00:56:14 41.61 43 Magne Undheim Nærbø SK 2 / Nærbø SK M 35-39 39 km 2014
133 00:56:26 41.46 47 Fred Skulevold Dalane SK / Dalane SK M 45-49 39 km 2014
134 00:56:26 41.46 47 Tore Vassvik Dalane SK / Dalane SK M 50-54 39 km 2014
135 00:56:28 41.44 32 Steinar Håland Bryne CK Superlag / Bryne Cykleklubb M 30-34 39 km 2015
136 00:56:28 41.44 32 Tore Rydningen TOSK Tempo Corvette / Tasta & Omegn Sykkel Klubb M 40-44 39 km 2015
137 00:56:30 41.41 51 Bård Christian Jensen Team STRIKeout / Stavanger Triathlon Klubb Sykkel M 45-49 39 km 2014
138 00:56:30 41.41 51 Hans Jakob Jaatun Team STRIKeout / Stavanger Triathlon Klubb Sykkel M 40-44 39 km 2014
139 00:56:30 41.41 51 Thomas Kvalevåg Team STRIKeout / Stavanger Triathlon Klubb Sykkel M 30-34 39 km 2014
140 00:56:30 41.41 51 Knut Aksel Rydningen Team STRIKeout / Stavanger Triathlon Klubb Sykkel M 30-34 39 km 2014
141 00:56:46 41.22 55 Eirik Idsøe Johannessen TOSK Tempo Corvette / Tasta & Omegn Sykkel Klubb M 35-39 39 km 2014
142 00:56:46 41.22 55 Frode Steine TOSK Tempo Corvette / Tasta & Omegn Sykkel Klubb M 25-29 39 km 2014
143 00:56:49 41.18 45 Andreas Gundersen Bryne Cykleklubb M 17-19 39 km 2017
144 00:56:49 41.18 45 Kim Arild Myklebust Klepp Cykle Club M 35-39 39 km 2017
145 00:56:58 41.07 41 Svein Flornes 5 Sverd / Sandnes Sykleklubb M 45-49 39 km 2015
146 00:57:00 41.05 41 Thore Thengs Dalane SK M 35-39 39 km 2016
147 00:57:15 40.87 61 Hilde Hetland Dalane SK MIx / Dalane SK K 40-44 39 km 2013
148 00:57:15 40.87 61 Lillian Løyning Dalane SK Mix / Dalane SK K 45-49 39 km 2013
149 00:57:16 40.86 59 Morten Braut Bogafjell SK / Bogafjell Sykleklubb M 35-39 39 km 2014
150 00:57:16 40.86 59 Sveinung Hetland Bogafjell SK / Bogafjell Sykleklubb M 40-44 39 km 2014
151 00:57:16 40.86 59 Kjell Høie Bogafjell SK / Bogafjell Sykleklubb M 50-54 39 km 2014
152 00:57:16 40.86 59 Jan Nessa Bogafjell SK / Bogafjell Sykleklubb M 35-39 39 km 2014
153 00:57:16 40.86 59 Oddgeir Sunde Bogafjell SK / Bogafjell Sykleklubb M 40-44 39 km 2014
154 00:57:35 40.63 55 Morten Hanasand Rennesøy Sykelklubb M 35-39 39 km 2017
155 00:57:35 40.63 55 Joar A. Larsen Rennesøy Sykelklubb M 45-49 39 km 2017
156 00:57:35 40.63 55 Kjetil Nedrebø Rennesøy Sykelklubb M 45-49 39 km 2017
157 00:57:48 40.48 66 Per Vidar Avlesbug KCC Road Power / Klepp Cykle Club M 45-49 39 km 2013
158 00:57:48 40.48 66 Stig Laland KCC Road Power / Klepp Cykle Club M 40-44 39 km 2013
159 00:57:50 40.46 45 Kjetil Theodor Stangeland Bryne CK Superlag / Bryne Cykleklubb M 40-44 39 km 2015
160 00:57:57 40.37 46 Dagfinn Mong Dalane SK / Dalane SK M 50-54 39 km 2015
161 00:58:08 40.25 71 Stein Danielsen Bogafjell Slipstreams / Bogafjell Sykleklubb M 45-49 39 km 2013
162 00:58:08 40.25 71 Tor Anders Skjæveland Bogafjell Slipstreams / Bogafjell Sykleklubb M 40-44 39 km 2013
163 00:58:08 40.25 71 Hans Rune Tonstad Bogafjell Slipstreams / Bogafjell Sykleklubb M 40-44 39 km 2013
164 00:58:28 40.02 76 Rune Hammersland Team STRIKmotor / Stavanger Triathlon Klubb Sykkel M 35-39 39 km 2013
165 00:58:28 40.02 76 Kjetil Isaksen Team STRIKmotor / Stavanger Triathlon Klubb Sykkel M 35-39 39 km 2013
166 00:58:28 40.02 76 Kalle Simm Team STRIKmotor / Stavanger Triathlon Klubb Sykkel M 30-34 39 km 2013
167 00:58:28 40.02 76 Stig Warsla Team STRIKmotor / Stavanger Triathlon Klubb Sykkel M 35-39 39 km 2013
168 00:58:30 40 64 Geir Lone Need for Speed / Sandnes Sykleklubb M 35-39 39 km 2014
169 00:58:35 39.94 65 Thor Hesselberg TTTosk 2014 / Tasta & Omegn Sykkel Klubb M 40-44 39 km 2014
170 00:58:38 39.90 60 Atle Abrahamsen Tasta & Omegn Sykkel Klubb M 45-49 39 km 2017
171 00:58:38 39.90 60 Carl Christian Tasta & Omegn Sykkel Klubb M 30-34 39 km 2017
172 00:58:38 39.90 60 Jarle Hamre Tasta & Omegn Sykkel Klubb M 30-34 39 km 2017
173 00:58:38 39.90 60 Håvard Madsen Lampe Tasta & Omegn Sykkel Klubb M 35-39 39 km 2017
174 00:58:38 39.90 60 Kjetil Årsland Tasta & Omegn Sykkel Klubb M 45-49 39 km 2017
175 00:58:39 39.89 66 Simen Nilssen KCC Road Power / Klepp Cykle Club M 20-24 39 km 2014
176 00:58:39 39.89 66 Roy Ellingsen Ueland KCC Road Power / Klepp Cykle Club M 17-19 39 km 2014
177 00:58:44 39.84 70 Nicholas Ashton Statoil Torque / Tasta & Omegn Sykkel Klubb / Statoil BIL M 40-44 39 km 2014
178 00:58:44 39.84 70 Rune Bråthen Statoil Torque / Stavanger Triathlon Klubb Sykkel / Statoil BIL M 60-64 39 km 2014
179 00:58:44 39.84 70 Jeroen van der Hoek Statoil Torque / Statoil BIL M 40-44 39 km 2014
180 00:58:50 39.77 74 Lars Kåre Skjørestad KCC Road Power / Klepp Cykle Club M 45-49 39 km 2014
181 00:58:53 39.73 56 Jens Bolme Bryne CK Solstrålene / Bryne Cykleklubb M 45-49 39 km 2015
182 00:58:53 39.73 56 Nils Gunnar Rage Bryne CK Solstrålene / Bryne Cykleklubb M 45-49 39 km 2015
183 00:58:53 39.73 56 Odd Rune Røyland Bryne CK Solstrålene / Bryne Cykleklubb M 50-54 39 km 2015
184 00:58:53 39.73 56 Kenneth Ueland Bryne CK Solstrålene / Bryne Cykleklubb M 25-29 39 km 2015
185 00:59:03 39.62 60 Karstein Hagenes KCC Medvindskameratene / Sandnes Sykleklubb M 45-49 39 km 2015
186 00:59:03 39.62 60 Kristian Lundemo KCC Medvindskameratene M 40-44 39 km 2015
187 00:59:09 39.56 65 John Inge Blom Pettersen Klepp Cykle Club M 45-49 39 km 2017
188 00:59:18 39.46 43 Håvard Austnaberg Bryne Triatlonklubb - Sykkel M 25-29 39 km 2016
189 00:59:18 39.46 43 Johan Lende Bryne Triatlonklubb - Sykkel M 35-39 39 km 2016
190 00:59:18 39.46 43 Noel Tidbury Bryne Triatlonklubb - Sykkel M 35-39 39 km 2016
191 00:59:19 39.44 65 Erling Forberg 5 Sverd / Tasta & Omegn Sykkel Klubb / Hafrsfjord SK M 50-54 39 km 2015
192 00:59:24 39.39 47 Espen Simonstad Bryne Triatlonklubb - Sykkel M 30-34 39 km 2016
193 00:59:30 39.32 66 Jørn-Atle Borsheim Bogafjell Slipstream 2015 / Bogafjell Sykleklubb M 40-44 39 km 2015
194 00:59:30 39.32 66 John Børge Skjæveland Bogafjell Slipstream 2015 / Bogafjell Sykleklubb M 45-49 39 km 2015
195 00:59:34 39.28 70 Richard Dalen Nærbø SK M 30-34 39 km 2017
196 00:59:34 39.28 70 Njål Gudmestad Nærbø SK M 35-39 39 km 2017
197 00:59:34 39.28 70 Helge Våland Nærbø SK M 25-29 39 km 2017
198 00:59:42 39.19 81 Åge Telstø KCC Road Vikings / Klepp Cykle Club M 45-49 39 km 2013
199 00:59:42 39.19 75 Torbjørn Aakre Dalane SK / Dalane SK M 60-64 39 km 2014
200 00:59:43 39.18 76 Øyvin Johnsen Baker Hughes Tempo Team / Sandnes Sykleklubb / Baker Hughes M 55-59 39 km 2014
201 00:59:43 39.18 76 Sigmund Pettersen Baker Hughes Tempo Team / Hafrsfjord SK / Baker Hughes M 25-29 39 km 2014
202 00:59:43 39.18 76 Lukasz Szewczyk Baker Hughes Tempo Team / Tasta & Omegn Sykkel Klubb / Baker Hughes M 25-29 39 km 2014
203 00:59:43 39.18 76 Øyvind Tjemsland Baker Hughes Tempo Team / Sandnes Sykleklubb / Baker Hughes M 50-54 39 km 2014
204 00:59:47 39.14 80 Steinar Klungtveit Sandnes Bånn Piiine / Sandnes Sykleklubb M 50-54 39 km 2014
205 00:59:47 39.14 80 Hans Eyvind Meihack Sandnes Bånn Piiine / Sandnes Sykleklubb M 45-49 39 km 2014
206 00:59:47 39.14 80 Anders Nermoen Sandnes Bånn Piiine / Sandnes Sykleklubb M 30-34 39 km 2014
207 00:59:47 39.14 80 Tor Øverås Sandnes Bånn Piiine / Sandnes Sykleklubb M 50-54 39 km 2014
208 00:59:49 39.11 86 Torbjørn Todnem Team underdogs / Bogafjell Sykleklubb M 35-39 39 km 2013
209 00:59:49 39.11 86 Morten Vasvik Team underdogs / Bogafjell Sykleklubb M 35-39 39 km 2013
210 00:59:52 39.08 70 Egil Lillebø Bogafjell Slipstream 2015 / Bogafjell Sykleklubb M 40-44 39 km 2015
211 00:59:55 39.05 91 Trond Erik Hetlelid Team Stevens / Bogafjell Sykleklubb /Kruse Smith M 50-54 39 km 2013
212 00:59:55 39.05 91 Arne Lima Team Stevens / Bogafjell Sykleklubb /Kruse Smith M 45-49 39 km 2013
213 00:59:55 39.05 91 Thomas Torsvik Team Stevens / Lura Sykkelklubb / Trones Sykkel M 30-34 39 km 2013
214 00:59:55 39.05 91 Frode Aase Team Stevens / Bogafjell Sykleklubb M 40-44 39 km 2013
215 00:59:56 39.04 75 Simon Odland Bryne Triatlonklubb M 30-34 39 km 2017
216 00:59:56 39.04 75 Jonas Rugland Bryne Triatlonklubb M 20-39 39 km 2017
217 00:59:56 39.04 75 Rune Rugland Bryne Triatlonklubb M 35-39 39 km 2017
218 00:59:56 39.04 75 Torbjørn Selmer Spinn M 30-35 39 km 2017
219 00:59:57 39.03 71 Per Benjaminsen Sola rett vest / Sola Cykleklubb M 40-44 39 km 2015
220 00:59:57 39.03 71 Stian Laland Sola rett vest / Sola Cykleklubb M 40-44 39 km 2015
221 00:59:57 39.03 71 Kim Borg Larsen Sola rett vest / Sola Cykleklubb M 35-39 39 km 2015
222 00:59:57 39.03 71 Kenneth Aasberg Sola rett vest / Sola Cykleklubb M 40-44 39 km 2015
223 01:00:00 39 96 Roald Kluge Statoil Tempo Team / Bogafjell Sykleklubb M 40-44 39 km 2013
224 01:00:00 39 96 Harald Nybru Statoil Tempo Team / Hafrsfjord SK M 55-59 39 km 2013
225 01:00:00 39 96 Øyvind Solberg Statoil Tempo Team M 30-34 39 km 2013
226 01:00:04 38.95 101 Cathrine Alfredsen Bryne CK - Damer / Bryne CK K 20-24 39 km 2013
227 01:00:04 38.95 101 Rakel Kristine Henriksen Bryne CK - Damer / Bryne CK K 20-24 39 km 2013
228 01:00:04 38.95 101 Tone Hatteland Lima Bryne CK - Damer / Bryne CK / Hitec Products K 30-34 39 km 2013
229 01:00:04 38.95 101 Siri Minge Bryne CK - Damer / Bryne CK / Hitec Products K 17-19 39 km 2013
230 01:00:04 38.95 101 Margrethe Pedersen Bryne CK - Damer / Bryne CK K 20-24 39 km 2013
231 01:00:09 38.90 80 Amund Haakonsen Sola Cykleklubb M 17-19 39 km 2017
232 01:00:09 38.90 80 Gert Olav Rege Sola Cykleklubb M 40-44 39 km 2017
233 01:00:09 38.90 80 Fredrik Tanum Sola Cykleklubb M 30-34 39 km 2017
234 01:00:12 38.87 53 Kristian Egedahl Tasta & Omegn Sykkel Klubb M 30-34 39 km 2016
235 01:00:12 38.87 53 Atle Sivertsen Tasta & Omegn Sykkel Klubb M 30-34 39 km 2016
236 01:00:12 38.87 53 Kim Sørensen Tasta & Omegn Sykkel Klubb M 30-34 39 km 2016
237 01:00:15 38.83 106 Knut Borgenvik Eide Bogafjell Vikings / Bogafjell Sykleklubb / Archer M 35-39 39 km 2013
238 01:00:15 38.83 106 Trond Hagen Bogafjell Vikings / Bogafjell Sykleklubb M 25-29 39 km 2013
239 01:00:15 38.83 106 Eirik Hauff Bogafjell Vikings / Bogafjell Sykleklubb M 35-39 39 km 2013
240 01:00:15 38.83 106 Steinar Meland Bogafjell Vikings / Bogafjell Sykleklubb M 45-49 39 km 2013
241 01:00:15 38.83 106 Håvard Tangen Bogafjell Vikings / Bogafjell Sykleklubb M 30-34 39 km 2013
242 01:00:17 38.81 85 Stine Borgli Bryne Cykleklubb K 25-29 39 km 2017
243 01:00:17 38.81 85 Veronica Gjerde Bryne Cykleklubb K 30-34 39 km 2017
244 01:00:17 38.81 84 Christian Pritchard-Davies Team STRIKeout / Stavanger Triathlon Klubb Sykkel M 30-34 39 km 2014
245 01:00:17 38.81 85 Andrea Terjesen Bryne Cykleklubb K 20-24 39 km 2017
246 01:00:39 38.58 111 Jan-Arild Anda Sørmarka Team / Bryne CK M 35-39 39 km 2013
247 01:00:39 38.58 111 Vegar Bakken Sørmarka Team / Bryne CK M 45-49 39 km 2013
248 01:00:39 38.58 111 Håvard Bergland Leknes Sørmarka Team / Stavanger SK M 20-24 39 km 2013
249 01:00:39 38.58 111 Ole Morten Mellemstrand Sørmarka Team / Klepp Cykle Club M 40-44 39 km 2013
250 01:00:39 38.58 111 Anne Beth Eiken Nilsen Sørmarka Team / Bryne CK / MPM BIL K 35-39 39 km 2013


Lengde: 40.60 km

Nr Tid Km/t Plassering Fornavn Etternavn Klubb/sted Klasse Lengde År
1 00:53:26 45.58 1 Magne Hatteland Bryne Cykleklubb M 30-34 40.60 km 2018
2 00:53:26 45.58 1 Einar Lode Bryne Cykleklubb M 50-54 40.60 km 2018
3 00:53:26 45.58 1 Thomas Nærland Bryne Cykleklubb M 40-44 40.60 km 2018
4 00:53:26 45.58 1 Lars Stangeland Bryne Cykleklubb M 35-39 40.60 km 2018
5 00:54:36 44.61 5 Anders Buland Sandnes Sykkelklubb M 25-29 40.60 km 2018
6 00:54:36 44.61 5 Åge André Kolnes Sandnes Sykkelklubb M 30-34 40.60 km 2018
7 00:54:36 44.61 5 Johannes Olsen Sandnes Sykkelklubb M 30-34 40.60 km 2018
8 00:54:36 44.61 5 Bjørnar Rettedal Sandnes Sykkelklubb M 30-34 40.60 km 2018
9 00:55:04 44.23 9 Stian Osmundsen Bryne Cykleklubb M 40-44 40.60 km 2018
10 00:55:14 44.10 10 Helmer Berre Stavanger SK M 50-54 40.60 km 2018
11 00:55:14 44.10 10 Erik Gysland Stavanger SK M 45-49 40.60 km 2018
12 00:55:14 44.10 10 Ørjan Hegreberg Tasta & omegn sykkelklubb M 30-34 40.60 km 2018
13 00:55:14 44.10 10 Kenneth Pedersen Tasta & omegn sykkelklubb M 45-49 40.60 km 2018
14 00:55:14 44.10 10 Christian Erevik Riise Stavanger SK M 25-29 40.60 km 2018
15 00:57:03 42.69 15 Arne Andersen Klepp Cykle Club M 45-49 40.60 km 2018
16 00:57:03 42.69 15 Magnar Aurmo Bryne Cykleklubb M 45-49 40.60 km 2018
17 00:57:03 42.69 15 Sigve Bore Klepp Cykle Club M 40-44 40.60 km 2018
18 00:57:03 42.69 15 Attila Hudak Klepp Cykle Club M 35-39 40.60 km 2018
19 00:57:03 42.69 15 Stein Johansen Tubakken Sykkelklubb M 40-44 40.60 km 2018
20 00:59:03 41.25 20 Helge Løge Bryne Cykleklubb M 50-54 40.60 km 2018
21 00:59:03 41.25 20 Torbjørn Tobias Obrestad Bryne Cykleklubb M 50-54 40.60 km 2018
22 00:59:03 41.25 20 Rolf Helge Selliken Bryne Cykleklubb M 50-54 40.60 km 2018
23 00:59:03 41.25 20 Tor Helge Vatne Bryne Cykleklubb M 55-59 40.60 km 2018
24 00:59:03 41.25 20 Jarle Vorland Bryne Cykleklubb M 55-59 40.60 km 2018
25 01:07:40 36 25 Tone Hatteland Lima Bryne Cykleklubb K 35-39 40.60 km 2018
26 01:07:40 36 25 Lillian Løyning Bryne Cykleklubb K 50-54 40.60 km 2018
27 01:07:40 36 25 Amy Mir Bryne Cykleklubb K 25-29 40.60 km 2018
28 01:07:40 36 25 Anne Beth Eiken Nilsen Bryne Cykleklubb K 40-44 40.60 km 2018


Sponsorer
Squeezy